sensor_id;sensor_type;location;lat;lon;timestamp;temperature;humidity
2995;DHT22;35277;49.890;8.222;2023-04-01T00:00:32;22.30;67.80
2995;DHT22;35277;49.890;8.222;2023-04-01T00:03:00;22.30;67.80
2995;DHT22;35277;49.890;8.222;2023-04-01T00:05:28;22.30;67.80
2995;DHT22;35277;49.890;8.222;2023-04-01T00:07:57;22.30;67.80
2995;DHT22;35277;49.890;8.222;2023-04-01T00:10:24;22.30;67.80
2995;DHT22;35277;49.890;8.222;2023-04-01T00:12:52;22.30;67.80
2995;DHT22;35277;49.890;8.222;2023-04-01T00:15:21;22.30;67.80
2995;DHT22;35277;49.890;8.222;2023-04-01T00:17:49;22.30;67.80
2995;DHT22;35277;49.890;8.222;2023-04-01T00:20:17;22.30;67.80
2995;DHT22;35277;49.890;8.222;2023-04-01T00:22:45;22.30;67.70
2995;DHT22;35277;49.890;8.222;2023-04-01T00:25:13;22.30;67.70
2995;DHT22;35277;49.890;8.222;2023-04-01T00:27:42;22.30;67.70
2995;DHT22;35277;49.890;8.222;2023-04-01T00:30:10;22.30;67.70
2995;DHT22;35277;49.890;8.222;2023-04-01T00:32:39;22.30;67.70
2995;DHT22;35277;49.890;8.222;2023-04-01T00:35:08;22.30;67.70
2995;DHT22;35277;49.890;8.222;2023-04-01T00:37:37;22.30;67.60
2995;DHT22;35277;49.890;8.222;2023-04-01T00:40:08;22.20;67.50
2995;DHT22;35277;49.890;8.222;2023-04-01T00:42:35;22.30;67.60
2995;DHT22;35277;49.890;8.222;2023-04-01T00:45:23;22.20;67.50
2995;DHT22;35277;49.890;8.222;2023-04-01T00:47:54;22.20;67.50
2995;DHT22;35277;49.890;8.222;2023-04-01T00:50:22;22.20;67.50
2995;DHT22;35277;49.890;8.222;2023-04-01T00:52:52;22.20;67.50
2995;DHT22;35277;49.890;8.222;2023-04-01T00:55:21;22.20;67.50
2995;DHT22;35277;49.890;8.222;2023-04-01T00:57:50;22.20;67.50
2995;DHT22;35277;49.890;8.222;2023-04-01T01:00:20;22.20;67.50
2995;DHT22;35277;49.890;8.222;2023-04-01T01:02:50;22.20;67.40
2995;DHT22;35277;49.890;8.222;2023-04-01T01:05:24;22.20;67.40
2995;DHT22;35277;49.890;8.222;2023-04-01T01:08:01;22.20;67.40
2995;DHT22;35277;49.890;8.222;2023-04-01T01:10:32;22.20;67.40
2995;DHT22;35277;49.890;8.222;2023-04-01T01:13:06;22.20;67.50
2995;DHT22;35277;49.890;8.222;2023-04-01T01:15:41;22.20;67.40
2995;DHT22;35277;49.890;8.222;2023-04-01T01:18:18;22.20;67.40
2995;DHT22;35277;49.890;8.222;2023-04-01T01:21:20;22.20;67.40
2995;DHT22;35277;49.890;8.222;2023-04-01T01:26:55;22.20;67.40
2995;DHT22;35277;49.890;8.222;2023-04-01T01:32:51;22.20;67.40
2995;DHT22;35277;49.890;8.222;2023-04-01T01:35:28;22.20;67.40
2995;DHT22;35277;49.890;8.222;2023-04-01T01:38:02;22.20;67.40
2995;DHT22;35277;49.890;8.222;2023-04-01T01:40:32;22.20;67.40
2995;DHT22;35277;49.890;8.222;2023-04-01T01:43:05;22.20;67.30
2995;DHT22;35277;49.890;8.222;2023-04-01T01:45:35;22.20;67.40
2995;DHT22;35277;49.890;8.222;2023-04-01T01:48:07;22.20;67.30
2995;DHT22;35277;49.890;8.222;2023-04-01T01:50:37;22.20;67.30
2995;DHT22;35277;49.890;8.222;2023-04-01T01:53:09;22.20;67.30
2995;DHT22;35277;49.890;8.222;2023-04-01T01:55:38;22.20;67.30
2995;DHT22;35277;49.890;8.222;2023-04-01T01:58:11;22.20;67.30
2995;DHT22;35277;49.890;8.222;2023-04-01T02:00:44;22.20;67.30
2995;DHT22;35277;49.890;8.222;2023-04-01T02:03:15;22.20;67.30
2995;DHT22;35277;49.890;8.222;2023-04-01T02:05:46;22.20;67.30
2995;DHT22;35277;49.890;8.222;2023-04-01T02:08:17;22.20;67.30
2995;DHT22;35277;49.890;8.222;2023-04-01T02:10:50;22.20;67.20
2995;DHT22;35277;49.890;8.222;2023-04-01T02:13:27;22.20;67.30
2995;DHT22;35277;49.890;8.222;2023-04-01T02:16:00;22.20;67.20
2995;DHT22;35277;49.890;8.222;2023-04-01T02:18:30;22.20;67.20
2995;DHT22;35277;49.890;8.222;2023-04-01T02:21:00;22.20;67.20
2995;DHT22;35277;49.890;8.222;2023-04-01T02:23:29;22.20;68.10
2995;DHT22;35277;49.890;8.222;2023-04-01T02:25:57;22.20;67.20
2995;DHT22;35277;49.890;8.222;2023-04-01T02:28:25;22.20;67.20
2995;DHT22;35277;49.890;8.222;2023-04-01T02:30:54;22.20;67.20
2995;DHT22;35277;49.890;8.222;2023-04-01T02:33:22;22.20;67.20
2995;DHT22;35277;49.890;8.222;2023-04-01T02:35:50;22.20;67.20
2995;DHT22;35277;49.890;8.222;2023-04-01T02:38:19;22.20;67.20
2995;DHT22;35277;49.890;8.222;2023-04-01T02:40:49;22.20;67.20
2995;DHT22;35277;49.890;8.222;2023-04-01T02:43:17;22.20;67.20
2995;DHT22;35277;49.890;8.222;2023-04-01T02:45:46;22.20;67.20
2995;DHT22;35277;49.890;8.222;2023-04-01T02:48:14;22.20;67.20
2995;DHT22;35277;49.890;8.222;2023-04-01T02:50:41;22.20;67.20
2995;DHT22;35277;49.890;8.222;2023-04-01T02:53:09;22.20;67.20
2995;DHT22;35277;49.890;8.222;2023-04-01T02:55:39;22.20;67.20
2995;DHT22;35277;49.890;8.222;2023-04-01T02:58:07;22.20;67.20
2995;DHT22;35277;49.890;8.222;2023-04-01T03:00:35;22.20;67.20
2995;DHT22;35277;49.890;8.222;2023-04-01T03:03:02;22.20;67.20
2995;DHT22;35277;49.890;8.222;2023-04-01T03:05:30;22.20;67.10
2995;DHT22;35277;49.890;8.222;2023-04-01T03:07:58;22.20;67.10
2995;DHT22;35277;49.890;8.222;2023-04-01T03:10:26;22.20;67.20
2995;DHT22;35277;49.890;8.222;2023-04-01T03:12:55;22.20;67.10
2995;DHT22;35277;49.890;8.222;2023-04-01T03:15:23;22.20;67.10
2995;DHT22;35277;49.890;8.222;2023-04-01T03:17:51;22.20;67.10
2995;DHT22;35277;49.890;8.222;2023-04-01T03:20:19;22.20;67.10
2995;DHT22;35277;49.890;8.222;2023-04-01T03:22:47;22.20;67.10
2995;DHT22;35277;49.890;8.222;2023-04-01T03:25:15;22.20;67.10
2995;DHT22;35277;49.890;8.222;2023-04-01T03:27:43;22.20;67.10
2995;DHT22;35277;49.890;8.222;2023-04-01T03:30:12;22.20;67.10
2995;DHT22;35277;49.890;8.222;2023-04-01T03:32:48;22.20;67.10
2995;DHT22;35277;49.890;8.222;2023-04-01T03:35:16;22.20;67.10
2995;DHT22;35277;49.890;8.222;2023-04-01T03:37:45;22.20;67.10
2995;DHT22;35277;49.890;8.222;2023-04-01T03:40:13;22.20;67.10
2995;DHT22;35277;49.890;8.222;2023-04-01T03:42:42;22.20;67.10
2995;DHT22;35277;49.890;8.222;2023-04-01T03:45:13;22.20;67.10
2995;DHT22;35277;49.890;8.222;2023-04-01T03:47:41;22.20;67.10
2995;DHT22;35277;49.890;8.222;2023-04-01T03:50:09;22.20;67.10
2995;DHT22;35277;49.890;8.222;2023-04-01T03:52:37;22.20;67.10
2995;DHT22;35277;49.890;8.222;2023-04-01T03:55:06;22.20;67.10
2995;DHT22;35277;49.890;8.222;2023-04-01T03:57:36;22.20;67.10
2995;DHT22;35277;49.890;8.222;2023-04-01T04:00:15;22.20;67.00
2995;DHT22;35277;49.890;8.222;2023-04-01T04:02:46;22.20;67.10
2995;DHT22;35277;49.890;8.222;2023-04-01T04:05:19;22.20;67.10
2995;DHT22;35277;49.890;8.222;2023-04-01T04:07:47;22.20;67.10
2995;DHT22;35277;49.890;8.222;2023-04-01T04:10:16;22.20;67.00
2995;DHT22;35277;49.890;8.222;2023-04-01T04:12:43;22.20;67.10
2995;DHT22;35277;49.890;8.222;2023-04-01T04:15:12;22.20;67.00
2995;DHT22;35277;49.890;8.222;2023-04-01T04:17:41;22.20;67.00
2995;DHT22;35277;49.890;8.222;2023-04-01T04:20:09;22.20;67.00
2995;DHT22;35277;49.890;8.222;2023-04-01T04:22:37;22.20;67.00
2995;DHT22;35277;49.890;8.222;2023-04-01T04:25:07;22.20;67.00
2995;DHT22;35277;49.890;8.222;2023-04-01T04:27:36;22.20;66.90
2995;DHT22;35277;49.890;8.222;2023-04-01T04:30:08;22.20;66.90
2995;DHT22;35277;49.890;8.222;2023-04-01T04:32:36;22.20;66.90
2995;DHT22;35277;49.890;8.222;2023-04-01T04:35:06;22.20;66.90
2995;DHT22;35277;49.890;8.222;2023-04-01T04:37:34;22.20;66.90
2995;DHT22;35277;49.890;8.222;2023-04-01T04:40:02;22.20;66.80
2995;DHT22;35277;49.890;8.222;2023-04-01T04:42:31;22.10;66.70
2995;DHT22;35277;49.890;8.222;2023-04-01T04:45:05;22.10;66.70
2995;DHT22;35277;49.890;8.222;2023-04-01T04:47:34;22.10;66.70
2995;DHT22;35277;49.890;8.222;2023-04-01T04:50:03;22.10;66.70
2995;DHT22;35277;49.890;8.222;2023-04-01T04:52:32;22.10;66.70
2995;DHT22;35277;49.890;8.222;2023-04-01T04:55:00;22.10;66.60
2995;DHT22;35277;49.890;8.222;2023-04-01T04:57:27;22.10;66.60
2995;DHT22;35277;49.890;8.222;2023-04-01T04:59:56;22.10;66.60
2995;DHT22;35277;49.890;8.222;2023-04-01T05:02:47;22.10;66.60
2995;DHT22;35277;49.890;8.222;2023-04-01T05:05:17;22.20;66.70
2995;DHT22;35277;49.890;8.222;2023-04-01T05:07:46;22.10;67.40
2995;DHT22;35277;49.890;8.222;2023-04-01T05:10:14;22.10;66.60
2995;DHT22;35277;49.890;8.222;2023-04-01T05:12:42;22.10;66.50
2995;DHT22;35277;49.890;8.222;2023-04-01T05:15:14;22.10;66.60
2995;DHT22;35277;49.890;8.222;2023-04-01T05:17:42;22.10;66.50
2995;DHT22;35277;49.890;8.222;2023-04-01T05:20:11;22.10;66.50
2995;DHT22;35277;49.890;8.222;2023-04-01T05:22:39;22.10;66.50
2995;DHT22;35277;49.890;8.222;2023-04-01T05:25:09;22.10;66.50
2995;DHT22;35277;49.890;8.222;2023-04-01T05:27:37;22.10;66.50
2995;DHT22;35277;49.890;8.222;2023-04-01T05:30:06;22.10;66.50
2995;DHT22;35277;49.890;8.222;2023-04-01T05:32:52;22.10;66.40
2995;DHT22;35277;49.890;8.222;2023-04-01T05:35:20;22.10;66.40
2995;DHT22;35277;49.890;8.222;2023-04-01T05:37:47;22.10;66.40
2995;DHT22;35277;49.890;8.222;2023-04-01T05:40:17;22.10;66.40
2995;DHT22;35277;49.890;8.222;2023-04-01T05:42:45;22.10;66.40
2995;DHT22;35277;49.890;8.222;2023-04-01T05:45:14;22.20;66.50
2995;DHT22;35277;49.890;8.222;2023-04-01T05:48:14;22.10;66.40
2995;DHT22;35277;49.890;8.222;2023-04-01T05:50:43;22.10;66.40
2995;DHT22;35277;49.890;8.222;2023-04-01T05:53:11;22.10;66.40
2995;DHT22;35277;49.890;8.222;2023-04-01T05:55:43;22.10;66.30
2995;DHT22;35277;49.890;8.222;2023-04-01T05:58:11;22.10;66.30
2995;DHT22;35277;49.890;8.222;2023-04-01T06:00:42;22.10;66.30
2995;DHT22;35277;49.890;8.222;2023-04-01T06:03:10;22.10;66.30
2995;DHT22;35277;49.890;8.222;2023-04-01T06:05:40;22.20;66.40
2995;DHT22;35277;49.890;8.222;2023-04-01T06:08:11;22.20;66.30
2995;DHT22;35277;49.890;8.222;2023-04-01T06:10:51;22.20;66.30
2995;DHT22;35277;49.890;8.222;2023-04-01T06:13:28;22.20;66.30
2995;DHT22;35277;49.890;8.222;2023-04-01T06:16:04;22.20;67.20
2995;DHT22;35277;49.890;8.222;2023-04-01T06:19:05;22.20;66.30
2995;DHT22;35277;49.890;8.222;2023-04-01T06:22:02;22.20;66.30
2995;DHT22;35277;49.890;8.222;2023-04-01T06:24:46;22.20;66.30
2995;DHT22;35277;49.890;8.222;2023-04-01T06:27:25;22.20;66.30
2995;DHT22;35277;49.890;8.222;2023-04-01T06:30:04;22.20;66.80
2995;DHT22;35277;49.890;8.222;2023-04-01T06:32:48;22.20;67.30
2995;DHT22;35277;49.890;8.222;2023-04-01T06:35:50;22.20;67.70
2995;DHT22;35277;49.890;8.222;2023-04-01T06:38:38;22.20;67.80
2995;DHT22;35277;49.890;8.222;2023-04-01T06:41:31;22.20;68.00
2995;DHT22;35277;49.890;8.222;2023-04-01T06:44:16;22.20;68.00
2995;DHT22;35277;49.890;8.222;2023-04-01T06:47:14;22.20;68.10
2995;DHT22;35277;49.890;8.222;2023-04-01T06:50:20;22.20;68.20
2995;DHT22;35277;49.890;8.222;2023-04-01T06:53:13;22.30;68.50
2995;DHT22;35277;49.890;8.222;2023-04-01T06:56:05;22.30;68.20
2995;DHT22;35277;49.890;8.222;2023-04-01T06:58:43;22.30;68.10
2995;DHT22;35277;49.890;8.222;2023-04-01T07:01:20;22.30;68.10
2995;DHT22;35277;49.890;8.222;2023-04-01T07:03:55;22.30;68.10
2995;DHT22;35277;49.890;8.222;2023-04-01T07:06:28;22.30;68.00
2995;DHT22;35277;49.890;8.222;2023-04-01T07:09:02;22.30;68.00
2995;DHT22;35277;49.890;8.222;2023-04-01T07:11:53;22.30;67.80
2995;DHT22;35277;49.890;8.222;2023-04-01T07:14:43;22.30;67.70
2995;DHT22;35277;49.890;8.222;2023-04-01T07:17:16;22.20;67.50
2995;DHT22;35277;49.890;8.222;2023-04-01T07:19:48;22.20;67.40
2995;DHT22;35277;49.890;8.222;2023-04-01T07:22:25;22.20;67.30
2995;DHT22;35277;49.890;8.222;2023-04-01T07:25:12;22.20;67.20
2995;DHT22;35277;49.890;8.222;2023-04-01T07:27:44;22.20;67.20
2995;DHT22;35277;49.890;8.222;2023-04-01T07:30:17;22.20;67.20
2995;DHT22;35277;49.890;8.222;2023-04-01T07:32:50;22.20;67.20
2995;DHT22;35277;49.890;8.222;2023-04-01T07:35:24;22.20;67.10
2995;DHT22;35277;49.890;8.222;2023-04-01T07:38:07;22.20;66.90
2995;DHT22;35277;49.890;8.222;2023-04-01T07:40:42;22.20;66.30
2995;DHT22;35277;49.890;8.222;2023-04-01T07:43:26;22.10;65.50
2995;DHT22;35277;49.890;8.222;2023-04-01T07:46:17;22.00;64.90
2995;DHT22;35277;49.890;8.222;2023-04-01T07:48:53;21.80;64.20
2995;DHT22;35277;49.890;8.222;2023-04-01T07:51:28;21.70;63.70
2995;DHT22;35277;49.890;8.222;2023-04-01T07:54:02;21.60;63.40
2995;DHT22;35277;49.890;8.222;2023-04-01T07:56:36;21.50;63.20
2995;DHT22;35277;49.890;8.222;2023-04-01T07:59:11;21.40;63.20
2995;DHT22;35277;49.890;8.222;2023-04-01T08:02:03;21.40;63.50
2995;DHT22;35277;49.890;8.222;2023-04-01T08:04:42;21.30;64.00
2995;DHT22;35277;49.890;8.222;2023-04-01T08:07:15;21.20;64.00
2995;DHT22;35277;49.890;8.222;2023-04-01T08:10:11;21.10;63.80
2995;DHT22;35277;49.890;8.222;2023-04-01T08:13:14;21.10;63.70
2995;DHT22;35277;49.890;8.222;2023-04-01T08:16:09;21.00;63.70
2995;DHT22;35277;49.890;8.222;2023-04-01T08:18:58;20.90;63.60
2995;DHT22;35277;49.890;8.222;2023-04-01T08:21:35;20.90;63.60
2995;DHT22;35277;49.890;8.222;2023-04-01T08:24:13;20.80;63.50
2995;DHT22;35277;49.890;8.222;2023-04-01T08:26:50;20.80;63.70
2995;DHT22;35277;49.890;8.222;2023-04-01T08:29:23;20.90;63.90
2995;DHT22;35277;49.890;8.222;2023-04-01T08:31:56;20.90;64.00
2995;DHT22;35277;49.890;8.222;2023-04-01T08:34:27;21.00;64.10
2995;DHT22;35277;49.890;8.222;2023-04-01T08:37:02;21.10;64.30
2995;DHT22;35277;49.890;8.222;2023-04-01T08:39:35;21.20;64.30
2995;DHT22;35277;49.890;8.222;2023-04-01T08:42:28;21.20;64.40
2995;DHT22;35277;49.890;8.222;2023-04-01T08:45:23;21.30;64.40
2995;DHT22;35277;49.890;8.222;2023-04-01T08:48:13;21.40;64.50
2995;DHT22;35277;49.890;8.222;2023-04-01T08:54:15;21.50;64.70
2995;DHT22;35277;49.890;8.222;2023-04-01T08:56:53;21.50;64.70
2995;DHT22;35277;49.890;8.222;2023-04-01T08:59:36;21.60;64.80
2995;DHT22;35277;49.890;8.222;2023-04-01T09:06:07;21.60;64.80
2995;DHT22;35277;49.890;8.222;2023-04-01T09:08:52;21.70;64.90
2995;DHT22;35277;49.890;8.222;2023-04-01T09:11:33;21.70;64.90
2995;DHT22;35277;49.890;8.222;2023-04-01T09:14:34;21.70;65.00
2995;DHT22;35277;49.890;8.222;2023-04-01T09:20:52;21.90;65.30
2995;DHT22;35277;49.890;8.222;2023-04-01T09:23:33;21.90;65.30
2995;DHT22;35277;49.890;8.222;2023-04-01T09:26:22;21.90;65.30
2995;DHT22;35277;49.890;8.222;2023-04-01T09:29:02;21.90;65.30
2995;DHT22;35277;49.890;8.222;2023-04-01T09:31:56;22.00;65.50
2995;DHT22;35277;49.890;8.222;2023-04-01T09:34:53;22.00;65.50
2995;DHT22;35277;49.890;8.222;2023-04-01T09:37:36;22.00;65.50
2995;DHT22;35277;49.890;8.222;2023-04-01T09:40:18;22.00;65.50
2995;DHT22;35277;49.890;8.222;2023-04-01T09:43:22;22.10;65.70
2995;DHT22;35277;49.890;8.222;2023-04-01T09:46:24;22.10;65.70
2995;DHT22;35277;49.890;8.222;2023-04-01T09:49:14;22.10;65.80
2995;DHT22;35277;49.890;8.222;2023-04-01T09:51:55;22.10;65.80
2995;DHT22;35277;49.890;8.222;2023-04-01T09:54:39;22.10;65.80
2995;DHT22;35277;49.890;8.222;2023-04-01T10:00:32;22.20;66.10
2995;DHT22;35277;49.890;8.222;2023-04-01T10:03:40;22.20;66.10
2995;DHT22;35277;49.890;8.222;2023-04-01T10:06:48;22.20;66.20
2995;DHT22;35277;49.890;8.222;2023-04-01T10:09:48;22.20;66.20
2995;DHT22;35277;49.890;8.222;2023-04-01T10:12:42;22.20;66.20
2995;DHT22;35277;49.890;8.222;2023-04-01T10:18:56;22.30;66.40
2995;DHT22;35277;49.890;8.222;2023-04-01T10:21:57;22.30;66.40
2995;DHT22;35277;49.890;8.222;2023-04-01T10:24:57;22.30;66.50
2995;DHT22;35277;49.890;8.222;2023-04-01T10:28:04;22.30;66.60
2995;DHT22;35277;49.890;8.222;2023-04-01T10:34:24;22.30;66.70
2995;DHT22;35277;49.890;8.222;2023-04-01T10:36:57;22.30;66.70
2995;DHT22;35277;49.890;8.222;2023-04-01T10:39:53;22.30;66.70
2995;DHT22;35277;49.890;8.222;2023-04-01T10:46:15;22.30;66.90
2995;DHT22;35277;49.890;8.222;2023-04-01T10:49:10;22.40;67.10
2995;DHT22;35277;49.890;8.222;2023-04-01T10:55:42;22.40;67.20
2995;DHT22;35277;49.890;8.222;2023-04-01T10:59:15;22.40;67.20
2995;DHT22;35277;49.890;8.222;2023-04-01T11:02:47;22.40;67.30
2995;DHT22;35277;49.890;8.222;2023-04-01T11:09:18;22.40;67.40
2995;DHT22;35277;49.890;8.222;2023-04-01T11:12:22;22.40;67.50
2995;DHT22;35277;49.890;8.222;2023-04-01T11:15:30;22.40;67.50
2995;DHT22;35277;49.890;8.222;2023-04-01T11:18:43;22.40;67.50
2995;DHT22;35277;49.890;8.222;2023-04-01T11:21:50;22.40;67.70
2995;DHT22;35277;49.890;8.222;2023-04-01T11:25:17;22.40;67.70
2995;DHT22;35277;49.890;8.222;2023-04-01T11:28:27;22.40;67.70
2995;DHT22;35277;49.890;8.222;2023-04-01T11:31:15;22.40;67.80
2995;DHT22;35277;49.890;8.222;2023-04-01T11:33:54;22.50;67.90
2995;DHT22;35277;49.890;8.222;2023-04-01T11:36:35;22.50;68.00
2995;DHT22;35277;49.890;8.222;2023-04-01T11:39:24;22.50;68.30
2995;DHT22;35277;49.890;8.222;2023-04-01T11:42:11;22.50;68.40
2995;DHT22;35277;49.890;8.222;2023-04-01T11:45:12;22.50;68.50
2995;DHT22;35277;49.890;8.222;2023-04-01T11:47:54;22.60;68.80
2995;DHT22;35277;49.890;8.222;2023-04-01T11:50:33;22.60;69.10
2995;DHT22;35277;49.890;8.222;2023-04-01T11:53:17;22.60;70.20
2995;DHT22;35277;49.890;8.222;2023-04-01T11:55:56;22.70;69.80
2995;DHT22;35277;49.890;8.222;2023-04-01T12:01:47;22.80;70.80
2995;DHT22;35277;49.890;8.222;2023-04-01T12:04:50;22.80;71.20
2995;DHT22;35277;49.890;8.222;2023-04-01T12:07:34;22.90;71.70
2995;DHT22;35277;49.890;8.222;2023-04-01T12:10:15;23.00;71.70
2995;DHT22;35277;49.890;8.222;2023-04-01T12:12:52;23.00;71.60
2995;DHT22;35277;49.890;8.222;2023-04-01T12:15:36;23.10;71.50
2995;DHT22;35277;49.890;8.222;2023-04-01T12:18:15;23.10;71.20
2995;DHT22;35277;49.890;8.222;2023-04-01T12:20:49;23.10;71.90
2995;DHT22;35277;49.890;8.222;2023-04-01T12:26:23;23.10;70.80
2995;DHT22;35277;49.890;8.222;2023-04-01T12:29:07;23.10;70.70
2995;DHT22;35277;49.890;8.222;2023-04-01T12:31:45;23.00;70.50
2995;DHT22;35277;49.890;8.222;2023-04-01T12:34:34;23.10;70.60
2995;DHT22;35277;49.890;8.222;2023-04-01T12:37:10;23.00;70.40
2995;DHT22;35277;49.890;8.222;2023-04-01T12:42:56;23.00;70.40
2995;DHT22;35277;49.890;8.222;2023-04-01T12:45:29;23.00;70.30
2995;DHT22;35277;49.890;8.222;2023-04-01T12:48:10;23.00;70.30
2995;DHT22;35277;49.890;8.222;2023-04-01T12:53:44;23.00;70.20
2995;DHT22;35277;49.890;8.222;2023-04-01T12:56:21;22.90;70.20
2995;DHT22;35277;49.890;8.222;2023-04-01T12:59:14;22.90;70.20
2995;DHT22;35277;49.890;8.222;2023-04-01T13:02:00;22.90;70.20
2995;DHT22;35277;49.890;8.222;2023-04-01T13:04:54;22.90;70.20
2995;DHT22;35277;49.890;8.222;2023-04-01T13:07:36;22.90;70.10
2995;DHT22;35277;49.890;8.222;2023-04-01T13:10:19;22.90;70.10
2995;DHT22;35277;49.890;8.222;2023-04-01T13:12:58;22.90;70.20
2995;DHT22;35277;49.890;8.222;2023-04-01T13:15:36;22.90;70.10
2995;DHT22;35277;49.890;8.222;2023-04-01T13:18:15;22.90;70.00
2995;DHT22;35277;49.890;8.222;2023-04-01T13:20:52;22.90;70.00
2995;DHT22;35277;49.890;8.222;2023-04-01T13:23:32;22.90;70.00
2995;DHT22;35277;49.890;8.222;2023-04-01T13:26:07;22.90;70.00
2995;DHT22;35277;49.890;8.222;2023-04-01T13:28:43;22.90;70.00
2995;DHT22;35277;49.890;8.222;2023-04-01T13:31:25;22.90;69.90
2995;DHT22;35277;49.890;8.222;2023-04-01T13:34:04;22.90;70.00
2995;DHT22;35277;49.890;8.222;2023-04-01T13:36:48;22.90;69.90
2995;DHT22;35277;49.890;8.222;2023-04-01T13:42:18;22.90;69.90
2995;DHT22;35277;49.890;8.222;2023-04-01T13:44:53;22.90;69.90
2995;DHT22;35277;49.890;8.222;2023-04-01T13:47:53;22.80;69.80
2995;DHT22;35277;49.890;8.222;2023-04-01T13:50:37;22.90;69.90
2995;DHT22;35277;49.890;8.222;2023-04-01T13:56:33;22.90;69.80
2995;DHT22;35277;49.890;8.222;2023-04-01T13:59:15;22.90;69.80
2995;DHT22;35277;49.890;8.222;2023-04-01T14:01:49;22.80;69.70
2995;DHT22;35277;49.890;8.222;2023-04-01T14:04:41;22.80;69.70
2995;DHT22;35277;49.890;8.222;2023-04-01T14:07:22;22.80;69.70
2995;DHT22;35277;49.890;8.222;2023-04-01T14:10:07;22.90;69.70
2995;DHT22;35277;49.890;8.222;2023-04-01T14:12:40;22.90;69.80
2995;DHT22;35277;49.890;8.222;2023-04-01T14:15:22;22.90;69.70
2995;DHT22;35277;49.890;8.222;2023-04-01T14:18:00;22.80;69.60
2995;DHT22;35277;49.890;8.222;2023-04-01T14:20:37;22.90;69.70
2995;DHT22;35277;49.890;8.222;2023-04-01T14:29:15;22.90;70.10
2995;DHT22;35277;49.890;8.222;2023-04-01T14:32:02;22.90;70.10
2995;DHT22;35277;49.890;8.222;2023-04-01T14:34:50;22.80;70.00
2995;DHT22;35277;49.890;8.222;2023-04-01T14:37:40;22.90;70.10
2995;DHT22;35277;49.890;8.222;2023-04-01T14:40:24;22.80;70.00
2995;DHT22;35277;49.890;8.222;2023-04-01T14:43:22;22.90;70.20
2995;DHT22;35277;49.890;8.222;2023-04-01T14:46:13;22.90;70.30
2995;DHT22;35277;49.890;8.222;2023-04-01T14:48:51;22.90;70.20
2995;DHT22;35277;49.890;8.222;2023-04-01T14:51:28;22.90;70.30
2995;DHT22;35277;49.890;8.222;2023-04-01T14:54:04;22.90;70.20
2995;DHT22;35277;49.890;8.222;2023-04-01T14:56:37;22.90;70.20
2995;DHT22;35277;49.890;8.222;2023-04-01T14:59:09;22.90;70.20
2995;DHT22;35277;49.890;8.222;2023-04-01T15:01:46;22.90;70.20
2995;DHT22;35277;49.890;8.222;2023-04-01T15:07:52;22.90;70.20
2995;DHT22;35277;49.890;8.222;2023-04-01T15:10:46;22.90;70.10
2995;DHT22;35277;49.890;8.222;2023-04-01T15:13:24;22.90;70.10
2995;DHT22;35277;49.890;8.222;2023-04-01T15:16:09;22.90;70.10
2995;DHT22;35277;49.890;8.222;2023-04-01T15:18:47;22.90;70.10
2995;DHT22;35277;49.890;8.222;2023-04-01T15:21:30;22.90;70.10
2995;DHT22;35277;49.890;8.222;2023-04-01T15:24:07;22.90;70.00
2995;DHT22;35277;49.890;8.222;2023-04-01T15:26:48;22.90;70.00
2995;DHT22;35277;49.890;8.222;2023-04-01T15:29:38;22.90;70.00
2995;DHT22;35277;49.890;8.222;2023-04-01T15:32:17;23.00;70.00
2995;DHT22;35277;49.890;8.222;2023-04-01T15:34:49;23.00;70.00
2995;DHT22;35277;49.890;8.222;2023-04-01T15:37:27;23.00;69.90
2995;DHT22;35277;49.890;8.222;2023-04-01T15:40:05;23.00;69.90
2995;DHT22;35277;49.890;8.222;2023-04-01T15:42:47;23.00;69.90
2995;DHT22;35277;49.890;8.222;2023-04-01T15:45:32;23.00;69.90
2995;DHT22;35277;49.890;8.222;2023-04-01T15:48:12;23.00;69.80
2995;DHT22;35277;49.890;8.222;2023-04-01T15:50:54;23.00;69.80
2995;DHT22;35277;49.890;8.222;2023-04-01T15:56:42;23.00;69.80
2995;DHT22;35277;49.890;8.222;2023-04-01T15:59:24;22.90;69.70
2995;DHT22;35277;49.890;8.222;2023-04-01T16:01:59;22.90;69.70
2995;DHT22;35277;49.890;8.222;2023-04-01T16:04:46;22.90;69.70
2995;DHT22;35277;49.890;8.222;2023-04-01T16:07:30;22.90;69.70
2995;DHT22;35277;49.890;8.222;2023-04-01T16:10:16;22.90;69.70
2995;DHT22;35277;49.890;8.222;2023-04-01T16:12:54;23.00;69.70
2995;DHT22;35277;49.890;8.222;2023-04-01T16:15:26;22.90;69.60
2995;DHT22;35277;49.890;8.222;2023-04-01T16:18:09;22.90;69.60
2995;DHT22;35277;49.890;8.222;2023-04-01T16:20:48;22.90;69.60
2995;DHT22;35277;49.890;8.222;2023-04-01T16:23:23;22.90;69.60
2995;DHT22;35277;49.890;8.222;2023-04-01T16:26:01;22.90;69.60
2995;DHT22;35277;49.890;8.222;2023-04-01T16:28:32;22.90;69.60
2995;DHT22;35277;49.890;8.222;2023-04-01T16:31:06;22.90;69.60
2995;DHT22;35277;49.890;8.222;2023-04-01T16:33:43;22.90;69.60
2995;DHT22;35277;49.890;8.222;2023-04-01T16:36:22;22.90;69.60
2995;DHT22;35277;49.890;8.222;2023-04-01T16:39:06;22.90;69.70
2995;DHT22;35277;49.890;8.222;2023-04-01T16:41:36;22.90;70.40
2995;DHT22;35277;49.890;8.222;2023-04-01T16:44:13;22.90;69.70
2995;DHT22;35277;49.890;8.222;2023-04-01T16:46:46;22.90;69.80
2995;DHT22;35277;49.890;8.222;2023-04-01T16:49:25;22.90;70.00
2995;DHT22;35277;49.890;8.222;2023-04-01T16:52:04;22.90;70.20
2995;DHT22;35277;49.890;8.222;2023-04-01T16:54:45;22.90;70.30
2995;DHT22;35277;49.890;8.222;2023-04-01T16:57:21;22.90;70.40
2995;DHT22;35277;49.890;8.222;2023-04-01T16:59:56;22.90;70.50
2995;DHT22;35277;49.890;8.222;2023-04-01T17:02:30;22.90;70.50
2995;DHT22;35277;49.890;8.222;2023-04-01T17:05:01;22.90;70.50
2995;DHT22;35277;49.890;8.222;2023-04-01T17:07:41;22.90;70.50
2995;DHT22;35277;49.890;8.222;2023-04-01T17:10:33;22.90;70.50
2995;DHT22;35277;49.890;8.222;2023-04-01T17:13:30;22.90;70.40
2995;DHT22;35277;49.890;8.222;2023-04-01T17:16:10;22.80;70.30
2995;DHT22;35277;49.890;8.222;2023-04-01T17:18:47;22.80;70.30
2995;DHT22;35277;49.890;8.222;2023-04-01T17:21:23;22.80;70.30
2995;DHT22;35277;49.890;8.222;2023-04-01T17:24:00;22.80;70.20
2995;DHT22;35277;49.890;8.222;2023-04-01T17:26:36;22.80;70.20
2995;DHT22;35277;49.890;8.222;2023-04-01T17:29:12;22.80;70.20
2995;DHT22;35277;49.890;8.222;2023-04-01T17:31:47;22.70;70.10
2995;DHT22;35277;49.890;8.222;2023-04-01T17:34:31;22.80;70.10
2995;DHT22;35277;49.890;8.222;2023-04-01T17:37:14;22.80;70.10
2995;DHT22;35277;49.890;8.222;2023-04-01T17:39:57;22.80;70.10
2995;DHT22;35277;49.890;8.222;2023-04-01T17:42:34;22.70;70.00
2995;DHT22;35277;49.890;8.222;2023-04-01T17:45:10;22.70;70.00
2995;DHT22;35277;49.890;8.222;2023-04-01T17:47:55;22.70;70.00
2995;DHT22;35277;49.890;8.222;2023-04-01T17:50:35;22.70;70.10
2995;DHT22;35277;49.890;8.222;2023-04-01T17:53:17;22.70;70.10
2995;DHT22;35277;49.890;8.222;2023-04-01T17:55:59;22.70;70.20
2995;DHT22;35277;49.890;8.222;2023-04-01T17:58:33;22.70;70.20
2995;DHT22;35277;49.890;8.222;2023-04-01T18:01:17;22.70;70.20
2995;DHT22;35277;49.890;8.222;2023-04-01T18:04:17;22.70;70.20
2995;DHT22;35277;49.890;8.222;2023-04-01T18:07:05;22.70;70.20